sensor_id;sensor_type;location;lat;lon;timestamp;pressure;altitude;pressure_sealevel;temperature;humidity
40872;BME280;26591;43.264;26.940;2023-05-13T00:02:03;99558.84;;;12.03;55.17
40872;BME280;26591;43.264;26.940;2023-05-13T00:04:30;99557.78;;;11.87;55.55
40872;BME280;26591;43.264;26.940;2023-05-13T00:06:56;99560.59;;;11.86;55.52
40872;BME280;26591;43.264;26.940;2023-05-13T00:09:22;99559.25;;;11.82;55.65
40872;BME280;26591;43.264;26.940;2023-05-13T00:11:47;99562.06;;;11.80;55.76
40872;BME280;26591;43.264;26.940;2023-05-13T00:14:12;99566.91;;;11.85;55.85
40872;BME280;26591;43.264;26.940;2023-05-13T00:16:38;99556.59;;;11.73;56.48
40872;BME280;26591;43.264;26.940;2023-05-13T00:19:04;99567.50;;;11.70;56.46
40872;BME280;26591;43.264;26.940;2023-05-13T00:21:29;99564.19;;;11.68;56.53
40872;BME280;26591;43.264;26.940;2023-05-13T00:23:56;99563.81;;;11.63;56.98
40872;BME280;26591;43.264;26.940;2023-05-13T00:26:22;99564.41;;;11.40;57.06
40872;BME280;26591;43.264;26.940;2023-05-13T00:28:47;99560.13;;;11.48;57.39
40872;BME280;26591;43.264;26.940;2023-05-13T00:31:13;99558.53;;;11.28;57.23
40872;BME280;26591;43.264;26.940;2023-05-13T00:33:38;99562.19;;;11.27;57.85
40872;BME280;26591;43.264;26.940;2023-05-13T00:36:04;99561.97;;;11.21;57.57
40872;BME280;26591;43.264;26.940;2023-05-13T00:38:36;99571.78;;;11.28;57.81
40872;BME280;26591;43.264;26.940;2023-05-13T00:41:04;99563.50;;;11.23;57.68
40872;BME280;26591;43.264;26.940;2023-05-13T00:43:30;99564.59;;;11.12;58.28
40872;BME280;26591;43.264;26.940;2023-05-13T00:45:57;99558.94;;;11.07;57.75
40872;BME280;26591;43.264;26.940;2023-05-13T00:48:23;99555.25;;;11.00;57.83
40872;BME280;26591;43.264;26.940;2023-05-13T00:50:49;99555.09;;;11.02;58.01
40872;BME280;26591;43.264;26.940;2023-05-13T00:53:16;99554.78;;;11.05;58.50
40872;BME280;26591;43.264;26.940;2023-05-13T00:55:43;99565.88;;;11.08;57.90
40872;BME280;26591;43.264;26.940;2023-05-13T00:58:08;99561.09;;;11.12;58.15
40872;BME280;26591;43.264;26.940;2023-05-13T01:00:55;99561.00;;;11.22;57.93
40872;BME280;26591;43.264;26.940;2023-05-13T01:03:36;99568.47;;;11.26;57.78
40872;BME280;26591;43.264;26.940;2023-05-13T01:06:26;99566.47;;;11.20;58.22
40872;BME280;26591;43.264;26.940;2023-05-13T01:09:06;99563.91;;;11.10;57.86
40872;BME280;26591;43.264;26.940;2023-05-13T01:11:38;99576.78;;;11.05;58.27
40872;BME280;26591;43.264;26.940;2023-05-13T01:14:08;99575.75;;;10.98;58.11
40872;BME280;26591;43.264;26.940;2023-05-13T01:16:45;99573.97;;;10.80;59.02
40872;BME280;26591;43.264;26.940;2023-05-13T01:19:51;99573.25;;;10.70;58.97
40872;BME280;26591;43.264;26.940;2023-05-13T01:22:16;99575.22;;;10.68;59.22
40872;BME280;26591;43.264;26.940;2023-05-13T01:24:42;99572.41;;;10.69;59.40
40872;BME280;26591;43.264;26.940;2023-05-13T01:27:08;99569.19;;;10.58;59.31
40872;BME280;26591;43.264;26.940;2023-05-13T01:29:34;99568.22;;;10.59;59.58
40872;BME280;26591;43.264;26.940;2023-05-13T01:32:00;99567.53;;;10.57;59.38
40872;BME280;26591;43.264;26.940;2023-05-13T01:34:27;99574.09;;;10.52;59.51
40872;BME280;26591;43.264;26.940;2023-05-13T01:36:54;99573.81;;;10.56;59.72
40872;BME280;26591;43.264;26.940;2023-05-13T01:39:21;99584.47;;;10.46;59.74
40872;BME280;26591;43.264;26.940;2023-05-13T01:41:48;99579.06;;;10.37;60.16
40872;BME280;26591;43.264;26.940;2023-05-13T01:44:13;99577.41;;;10.36;59.97
40872;BME280;26591;43.264;26.940;2023-05-13T01:46:42;99570.88;;;10.31;60.18
40872;BME280;26591;43.264;26.940;2023-05-13T01:49:08;99571.81;;;10.21;60.24
40872;BME280;26591;43.264;26.940;2023-05-13T01:51:35;99575.53;;;10.29;59.56
40872;BME280;26591;43.264;26.940;2023-05-13T01:54:04;99578.69;;;10.32;60.05
40872;BME280;26591;43.264;26.940;2023-05-13T01:56:30;99570.16;;;10.38;60.11
40872;BME280;26591;43.264;26.940;2023-05-13T01:58:55;99566.44;;;10.31;60.37
40872;BME280;26591;43.264;26.940;2023-05-13T02:01:21;99566.69;;;10.38;60.32
40872;BME280;26591;43.264;26.940;2023-05-13T02:03:46;99564.75;;;10.40;59.91
40872;BME280;26591;43.264;26.940;2023-05-13T02:06:14;99568.72;;;10.44;59.87
40872;BME280;26591;43.264;26.940;2023-05-13T02:08:41;99577.53;;;10.35;59.89
40872;BME280;26591;43.264;26.940;2023-05-13T02:11:07;99576.19;;;10.31;60.20
40872;BME280;26591;43.264;26.940;2023-05-13T02:13:32;99591.22;;;10.12;60.47
40872;BME280;26591;43.264;26.940;2023-05-13T02:15:58;99583.72;;;10.07;60.14
40872;BME280;26591;43.264;26.940;2023-05-13T02:18:23;99592.06;;;10.13;60.43
40872;BME280;26591;43.264;26.940;2023-05-13T02:20:49;99587.22;;;10.08;60.58
40872;BME280;26591;43.264;26.940;2023-05-13T02:23:15;99584.13;;;10.13;60.23
40872;BME280;26591;43.264;26.940;2023-05-13T02:25:42;99583.19;;;10.04;60.32
40872;BME280;26591;43.264;26.940;2023-05-13T02:28:09;99590.31;;;10.03;60.78
40872;BME280;26591;43.264;26.940;2023-05-13T02:30:35;99590.16;;;10.05;60.64
40872;BME280;26591;43.264;26.940;2023-05-13T02:33:00;99586.13;;;10.01;60.26
40872;BME280;26591;43.264;26.940;2023-05-13T02:35:26;99575.47;;;9.92;60.74
40872;BME280;26591;43.264;26.940;2023-05-13T02:37:55;99578.66;;;9.96;60.54
40872;BME280;26591;43.264;26.940;2023-05-13T02:40:20;99586.81;;;10.03;60.86
40872;BME280;26591;43.264;26.940;2023-05-13T02:42:46;99590.22;;;9.29;62.26
40872;BME280;26591;43.264;26.940;2023-05-13T02:45:11;99593.59;;;9.22;62.59
40872;BME280;26591;43.264;26.940;2023-05-13T02:47:38;99591.03;;;9.02;63.64
40872;BME280;26591;43.264;26.940;2023-05-13T02:50:05;99603.63;;;9.18;62.99
40872;BME280;26591;43.264;26.940;2023-05-13T02:52:32;99596.44;;;9.48;63.24
40872;BME280;26591;43.264;26.940;2023-05-13T02:55:01;99603.19;;;9.60;62.30
40872;BME280;26591;43.264;26.940;2023-05-13T02:57:27;99599.53;;;9.71;61.87
40872;BME280;26591;43.264;26.940;2023-05-13T02:59:53;99606.97;;;9.86;62.12
40872;BME280;26591;43.264;26.940;2023-05-13T03:02:18;99604.16;;;9.87;61.28
40872;BME280;26591;43.264;26.940;2023-05-13T03:04:44;99598.94;;;10.05;63.17
40872;BME280;26591;43.264;26.940;2023-05-13T03:07:09;99599.69;;;10.16;62.35
40872;BME280;26591;43.264;26.940;2023-05-13T03:09:35;99596.81;;;10.27;61.57
40872;BME280;26591;43.264;26.940;2023-05-13T03:12:04;99608.81;;;10.49;61.04
40872;BME280;26591;43.264;26.940;2023-05-13T03:14:30;99602.50;;;10.68;60.65
40872;BME280;26591;43.264;26.940;2023-05-13T03:16:58;99609.78;;;10.84;60.58
40872;BME280;26591;43.264;26.940;2023-05-13T03:19:24;99607.78;;;11.13;60.25
40872;BME280;26591;43.264;26.940;2023-05-13T03:21:49;99621.88;;;11.40;59.84
40872;BME280;26591;43.264;26.940;2023-05-13T03:24:15;99617.88;;;11.36;59.83
40872;BME280;26591;43.264;26.940;2023-05-13T03:26:40;99615.06;;;11.37;60.15
40872;BME280;26591;43.264;26.940;2023-05-13T03:29:05;99622.63;;;11.58;59.25
40872;BME280;26591;43.264;26.940;2023-05-13T03:31:31;99619.25;;;11.74;58.95
40872;BME280;26591;43.264;26.940;2023-05-13T03:33:56;99633.19;;;11.85;59.05
40872;BME280;26591;43.264;26.940;2023-05-13T03:36:22;99630.16;;;12.06;58.83
40872;BME280;26591;43.264;26.940;2023-05-13T03:38:47;99629.38;;;12.30;58.81
40872;BME280;26591;43.264;26.940;2023-05-13T03:41:13;99628.59;;;12.63;57.27
40872;BME280;26591;43.264;26.940;2023-05-13T03:43:42;99623.47;;;12.61;56.87
40872;BME280;26591;43.264;26.940;2023-05-13T03:46:07;99626.09;;;12.70;57.00
40872;BME280;26591;43.264;26.940;2023-05-13T03:48:33;99620.13;;;12.67;56.61
40872;BME280;26591;43.264;26.940;2023-05-13T03:50:58;99622.81;;;12.76;56.99
40872;BME280;26591;43.264;26.940;2023-05-13T03:53:24;99630.09;;;12.49;57.53
40872;BME280;26591;43.264;26.940;2023-05-13T03:55:49;99641.50;;;12.33;58.03
40872;BME280;26591;43.264;26.940;2023-05-13T03:58:15;99635.38;;;12.32;58.21
40872;BME280;26591;43.264;26.940;2023-05-13T04:00:42;99640.34;;;12.52;58.59
40872;BME280;26591;43.264;26.940;2023-05-13T04:03:11;99649.00;;;12.71;58.27
40872;BME280;26591;43.264;26.940;2023-05-13T04:05:36;99644.06;;;12.92;57.93
40872;BME280;26591;43.264;26.940;2023-05-13T04:08:02;99650.31;;;13.33;57.13
40872;BME280;26591;43.264;26.940;2023-05-13T04:10:27;99646.28;;;13.53;56.15
40872;BME280;26591;43.264;26.940;2023-05-13T04:12:53;99646.34;;;13.93;55.45
40872;BME280;26591;43.264;26.940;2023-05-13T04:15:18;99644.84;;;14.22;54.76
40872;BME280;26591;43.264;26.940;2023-05-13T04:17:44;99647.72;;;14.75;53.00
40872;BME280;26591;43.264;26.940;2023-05-13T04:20:09;99649.41;;;15.30;52.38
40872;BME280;26591;43.264;26.940;2023-05-13T04:22:35;99650.25;;;15.90;50.97
40872;BME280;26591;43.264;26.940;2023-05-13T04:25:01;99654.50;;;16.58;49.62
40872;BME280;26591;43.264;26.940;2023-05-13T04:27:26;99665.53;;;17.13;48.30
40872;BME280;26591;43.264;26.940;2023-05-13T04:29:52;99670.41;;;17.03;47.48
40872;BME280;26591;43.264;26.940;2023-05-13T04:32:17;99670.78;;;17.00;47.33
40872;BME280;26591;43.264;26.940;2023-05-13T04:34:49;99675.41;;;16.91;47.04
40872;BME280;26591;43.264;26.940;2023-05-13T04:37:15;99676.53;;;16.23;47.65
40872;BME280;26591;43.264;26.940;2023-05-13T04:39:43;99676.84;;;15.68;49.27
40872;BME280;26591;43.264;26.940;2023-05-13T04:42:09;99672.88;;;15.49;50.75
40872;BME280;26591;43.264;26.940;2023-05-13T04:44:34;99672.03;;;14.95;52.56
40872;BME280;26591;43.264;26.940;2023-05-13T04:47:00;99676.28;;;14.27;54.44
40872;BME280;26591;43.264;26.940;2023-05-13T04:49:26;99687.09;;;13.94;56.06
40872;BME280;26591;43.264;26.940;2023-05-13T04:51:52;99693.56;;;13.99;56.50
40872;BME280;26591;43.264;26.940;2023-05-13T04:54:17;99695.31;;;14.15;57.54
40872;BME280;26591;43.264;26.940;2023-05-13T04:56:43;99694.81;;;14.43;55.64
40872;BME280;26591;43.264;26.940;2023-05-13T04:59:08;99694.31;;;14.79;56.10
40872;BME280;26591;43.264;26.940;2023-05-13T05:01:34;99690.97;;;15.24;54.77
40872;BME280;26591;43.264;26.940;2023-05-13T05:03:59;99691.38;;;15.96;53.00
40872;BME280;26591;43.264;26.940;2023-05-13T05:06:25;99691.84;;;16.51;51.36
40872;BME280;26591;43.264;26.940;2023-05-13T05:08:50;99687.28;;;17.32;50.62
40872;BME280;26591;43.264;26.940;2023-05-13T05:11:16;99683.84;;;18.08;48.56
40872;BME280;26591;43.264;26.940;2023-05-13T05:13:41;99687.28;;;18.51;47.37
40872;BME280;26591;43.264;26.940;2023-05-13T05:16:08;99687.00;;;19.21;45.45
40872;BME280;26591;43.264;26.940;2023-05-13T05:18:33;99692.34;;;19.41;44.24
40872;BME280;26591;43.264;26.940;2023-05-13T05:21:01;99693.72;;;19.84;44.52
40872;BME280;26591;43.264;26.940;2023-05-13T05:23:26;99692.25;;;19.95;43.16
40872;BME280;26591;43.264;26.940;2023-05-13T05:25:52;99696.91;;;20.26;42.74
40872;BME280;26591;43.264;26.940;2023-05-13T05:28:18;99698.25;;;20.81;41.24
40872;BME280;26591;43.264;26.940;2023-05-13T05:30:43;99698.63;;;21.42;41.25
40872;BME280;26591;43.264;26.940;2023-05-13T05:33:09;99708.47;;;21.48;40.19
40872;BME280;26591;43.264;26.940;2023-05-13T05:35:35;99710.06;;;22.00;38.00
40872;BME280;26591;43.264;26.940;2023-05-13T05:38:03;99710.66;;;21.84;38.58
40872;BME280;26591;43.264;26.940;2023-05-13T05:40:34;99702.34;;;21.85;38.96
40872;BME280;26591;43.264;26.940;2023-05-13T05:42:59;99708.19;;;21.82;39.26
40872;BME280;26591;43.264;26.940;2023-05-13T05:45:25;99704.88;;;21.99;38.68
40872;BME280;26591;43.264;26.940;2023-05-13T05:47:50;99707.06;;;22.08;38.67
40872;BME280;26591;43.264;26.940;2023-05-13T05:50:18;99708.75;;;22.40;37.88
40872;BME280;26591;43.264;26.940;2023-05-13T05:52:43;99708.03;;;22.14;37.82
40872;BME280;26591;43.264;26.940;2023-05-13T05:55:09;99708.75;;;22.40;37.37
40872;BME280;26591;43.264;26.940;2023-05-13T05:57:34;99709.41;;;22.54;37.37
40872;BME280;26591;43.264;26.940;2023-05-13T06:00:00;99714.31;;;22.45;37.36
40872;BME280;26591;43.264;26.940;2023-05-13T06:02:25;99717.19;;;22.62;36.61
40872;BME280;26591;43.264;26.940;2023-05-13T06:04:51;99714.13;;;22.59;36.80
40872;BME280;26591;43.264;26.940;2023-05-13T06:07:16;99722.13;;;22.65;36.89
40872;BME280;26591;43.264;26.940;2023-05-13T06:09:42;99719.75;;;22.57;36.03
40872;BME280;26591;43.264;26.940;2023-05-13T06:12:07;99721.38;;;22.28;35.52
40872;BME280;26591;43.264;26.940;2023-05-13T06:14:33;99732.44;;;22.68;35.52
40872;BME280;26591;43.264;26.940;2023-05-13T06:16:59;99727.84;;;22.99;34.37
40872;BME280;26591;43.264;26.940;2023-05-13T06:19:24;99721.72;;;23.58;31.85
40872;BME280;26591;43.264;26.940;2023-05-13T06:21:50;99723.31;;;23.95;31.68
40872;BME280;26591;43.264;26.940;2023-05-13T06:24:15;99730.13;;;24.21;30.68
40872;BME280;26591;43.264;26.940;2023-05-13T06:26:41;99722.84;;;24.51;27.73
40872;BME280;26591;43.264;26.940;2023-05-13T06:29:06;99718.09;;;24.70;28.86
40872;BME280;26591;43.264;26.940;2023-05-13T06:31:32;99720.81;;;24.58;28.84
40872;BME280;26591;43.264;26.940;2023-05-13T06:33:57;99719.50;;;24.61;28.11
40872;BME280;26591;43.264;26.940;2023-05-13T06:36:23;99724.75;;;23.86;28.33
40872;BME280;26591;43.264;26.940;2023-05-13T06:38:48;99722.13;;;22.65;29.77
40872;BME280;26591;43.264;26.940;2023-05-13T06:41:14;99723.16;;;22.95;30.45
40872;BME280;26591;43.264;26.940;2023-05-13T06:43:39;99728.31;;;22.84;30.77
40872;BME280;26591;43.264;26.940;2023-05-13T06:46:05;99719.31;;;22.60;30.63
40872;BME280;26591;43.264;26.940;2023-05-13T06:48:31;99714.69;;;22.12;31.24
40872;BME280;26591;43.264;26.940;2023-05-13T06:50:56;99720.69;;;22.32;32.32
40872;BME280;26591;43.264;26.940;2023-05-13T06:53:21;99717.22;;;21.69;29.87
40872;BME280;26591;43.264;26.940;2023-05-13T06:55:47;99709.22;;;21.37;32.37
40872;BME280;26591;43.264;26.940;2023-05-13T06:58:13;99706.31;;;22.01;32.47
40872;BME280;26591;43.264;26.940;2023-05-13T07:00:39;99714.25;;;21.96;32.27
40872;BME280;26591;43.264;26.940;2023-05-13T07:03:06;99715.56;;;22.61;31.07
40872;BME280;26591;43.264;26.940;2023-05-13T07:05:32;99721.41;;;22.39;30.24
40872;BME280;26591;43.264;26.940;2023-05-13T07:07:58;99711.47;;;22.21;29.78
40872;BME280;26591;43.264;26.940;2023-05-13T07:10:24;99708.34;;;21.43;31.02
40872;BME280;26591;43.264;26.940;2023-05-13T07:12:49;99712.16;;;21.79;30.52
40872;BME280;26591;43.264;26.940;2023-05-13T07:15:21;99715.22;;;21.64;30.17
40872;BME280;26591;43.264;26.940;2023-05-13T07:17:48;99714.69;;;22.30;30.49
40872;BME280;26591;43.264;26.940;2023-05-13T07:20:13;99715.56;;;22.61;29.82
40872;BME280;26591;43.264;26.940;2023-05-13T07:22:39;99709.16;;;22.06;30.93
40872;BME280;26591;43.264;26.940;2023-05-13T07:25:05;99718.47;;;22.60;31.08
40872;BME280;26591;43.264;26.940;2023-05-13T07:27:30;99721.34;;;22.77;31.47
40872;BME280;26591;43.264;26.940;2023-05-13T07:29:56;99714.34;;;22.57;30.68
40872;BME280;26591;43.264;26.940;2023-05-13T07:32:22;99709.78;;;22.58;30.93
40872;BME280;26591;43.264;26.940;2023-05-13T07:34:47;99712.25;;;22.40;31.38
40872;BME280;26591;43.264;26.940;2023-05-13T07:37:12;99712.81;;;20.67;34.05
40872;BME280;26591;43.264;26.940;2023-05-13T07:39:38;99717.16;;;20.22;35.61
40872;BME280;26591;43.264;26.940;2023-05-13T07:42:04;99721.47;;;20.76;34.50
40872;BME280;26591;43.264;26.940;2023-05-13T07:44:29;99717.59;;;21.73;33.22
40872;BME280;26591;43.264;26.940;2023-05-13T07:46:55;99710.56;;;21.72;33.00
40872;BME280;26591;43.264;26.940;2023-05-13T07:49:20;99713.34;;;21.84;33.18
40872;BME280;26591;43.264;26.940;2023-05-13T07:51:46;99709.84;;;20.43;34.37
40872;BME280;26591;43.264;26.940;2023-05-13T07:54:12;99709.25;;;21.05;34.88
40872;BME280;26591;43.264;26.940;2023-05-13T07:56:37;99695.06;;;20.98;35.12
40872;BME280;26591;43.264;26.940;2023-05-13T07:59:03;99706.53;;;20.86;35.20
40872;BME280;26591;43.264;26.940;2023-05-13T08:01:28;99702.06;;;21.49;33.51
40872;BME280;26591;43.264;26.940;2023-05-13T08:03:54;99708.34;;;20.02;35.12
40872;BME280;26591;43.264;26.940;2023-05-13T08:06:20;99702.75;;;20.10;35.44
40872;BME280;26591;43.264;26.940;2023-05-13T08:08:45;99705.28;;;20.43;34.98
40872;BME280;26591;43.264;26.940;2023-05-13T08:11:11;99699.66;;;20.06;36.98
40872;BME280;26591;43.264;26.940;2023-05-13T08:13:38;99700.34;;;20.72;35.49
40872;BME280;26591;43.264;26.940;2023-05-13T08:16:04;99699.22;;;21.19;34.12
40872;BME280;26591;43.264;26.940;2023-05-13T08:18:31;99696.44;;;20.68;34.37
40872;BME280;26591;43.264;26.940;2023-05-13T08:20:56;99691.03;;;21.07;34.12
40872;BME280;26591;43.264;26.940;2023-05-13T08:23:22;99698.06;;;21.33;33.21
40872;BME280;26591;43.264;26.940;2023-05-13T08:25:51;99707.97;;;21.58;33.19
40872;BME280;26591;43.264;26.940;2023-05-13T08:28:17;99707.53;;;21.87;32.82
40872;BME280;26591;43.264;26.940;2023-05-13T08:30:42;99704.53;;;21.95;32.63
40872;BME280;26591;43.264;26.940;2023-05-13T08:33:09;99703.34;;;21.91;32.98
40872;BME280;26591;43.264;26.940;2023-05-13T08:35:35;99702.13;;;21.43;33.43
40872;BME280;26591;43.264;26.940;2023-05-13T08:38:01;99701.75;;;21.39;34.52
40872;BME280;26591;43.264;26.940;2023-05-13T08:40:32;99708.94;;;20.10;35.36
40872;BME280;26591;43.264;26.940;2023-05-13T08:43:02;99709.16;;;20.54;34.85
40872;BME280;26591;43.264;26.940;2023-05-13T08:45:29;99704.22;;;20.51;34.69
40872;BME280;26591;43.264;26.940;2023-05-13T08:47:57;99701.63;;;20.31;34.68
40872;BME280;26591;43.264;26.940;2023-05-13T08:50:24;99701.09;;;20.54;35.17
40872;BME280;26591;43.264;26.940;2023-05-13T08:52:53;99701.13;;;21.37;34.95
40872;BME280;26591;43.264;26.940;2023-05-13T08:55:20;99701.78;;;21.58;33.56
40872;BME280;26591;43.264;26.940;2023-05-13T08:57:46;99690.59;;;21.61;33.99
40872;BME280;26591;43.264;26.940;2023-05-13T09:00:11;99692.44;;;21.16;34.40
40872;BME280;26591;43.264;26.940;2023-05-13T09:02:39;99695.09;;;20.52;35.19
40872;BME280;26591;43.264;26.940;2023-05-13T09:05:07;99699.59;;;20.97;34.93
40872;BME280;26591;43.264;26.940;2023-05-13T09:07:34;99701.47;;;20.97;35.25
40872;BME280;26591;43.264;26.940;2023-05-13T09:10:02;99691.47;;;21.04;34.26
40872;BME280;26591;43.264;26.940;2023-05-13T09:12:49;99696.81;;;19.81;35.21
40872;BME280;26591;43.264;26.940;2023-05-13T09:15:23;99686.78;;;19.02;36.75
40872;BME280;26591;43.264;26.940;2023-05-13T09:17:51;99685.94;;;19.29;36.70
40872;BME280;26591;43.264;26.940;2023-05-13T09:20:19;99686.44;;;20.05;35.17
40872;BME280;26591;43.264;26.940;2023-05-13T09:22:48;99699.06;;;20.50;35.93
40872;BME280;26591;43.264;26.940;2023-05-13T09:25:15;99694.16;;;21.04;34.84
40872;BME280;26591;43.264;26.940;2023-05-13T09:27:46;99681.31;;;21.06;34.53
40872;BME280;26591;43.264;26.940;2023-05-13T09:30:12;99676.69;;;21.39;34.94
40872;BME280;26591;43.264;26.940;2023-05-13T09:32:38;99686.94;;;21.48;34.04
40872;BME280;26591;43.264;26.940;2023-05-13T09:35:12;99683.50;;;21.67;32.32
40872;BME280;26591;43.264;26.940;2023-05-13T09:37:45;99677.06;;;21.42;31.56
40872;BME280;26591;43.264;26.940;2023-05-13T09:40:13;99681.75;;;20.78;31.31
40872;BME280;26591;43.264;26.940;2023-05-13T09:42:40;99679.31;;;20.24;31.10
40872;BME280;26591;43.264;26.940;2023-05-13T09:45:07;99672.25;;;19.77;32.28
40872;BME280;26591;43.264;26.940;2023-05-13T09:47:35;99654.91;;;19.66;33.52
40872;BME280;26591;43.264;26.940;2023-05-13T09:50:01;99659.81;;;19.96;32.80
40872;BME280;26591;43.264;26.940;2023-05-13T09:52:31;99665.44;;;19.68;33.02
40872;BME280;26591;43.264;26.940;2023-05-13T09:55:01;99667.56;;;20.18;32.44
40872;BME280;26591;43.264;26.940;2023-05-13T09:57:32;99673.97;;;20.95;31.62
40872;BME280;26591;43.264;26.940;2023-05-13T09:59:59;99664.34;;;20.73;32.04
40872;BME280;26591;43.264;26.940;2023-05-13T10:02:26;99646.91;;;21.33;32.44
40872;BME280;26591;43.264;26.940;2023-05-13T10:04:54;99655.56;;;20.92;30.94
40872;BME280;26591;43.264;26.940;2023-05-13T10:07:23;99651.75;;;20.67;32.03
40872;BME280;26591;43.264;26.940;2023-05-13T10:09:56;99649.44;;;20.46;31.97
40872;BME280;26591;43.264;26.940;2023-05-13T10:12:25;99653.28;;;20.24;33.20
40872;BME280;26591;43.264;26.940;2023-05-13T10:14:52;99643.03;;;20.47;32.77
40872;BME280;26591;43.264;26.940;2023-05-13T10:17:23;99643.06;;;20.01;33.86
40872;BME280;26591;43.264;26.940;2023-05-13T10:19:52;99643.47;;;19.98;34.22
40872;BME280;26591;43.264;26.940;2023-05-13T10:22:29;99641.44;;;19.80;32.65
40872;BME280;26591;43.264;26.940;2023-05-13T10:24:56;99643.38;;;19.52;33.02
40872;BME280;26591;43.264;26.940;2023-05-13T10:27:26;99635.66;;;19.83;32.48
40872;BME280;26591;43.264;26.940;2023-05-13T10:29:54;99653.16;;;20.45;32.37
40872;BME280;26591;43.264;26.940;2023-05-13T10:32:25;99639.78;;;20.38;31.87
40872;BME280;26591;43.264;26.940;2023-05-13T10:34:56;99644.56;;;20.29;32.63
40872;BME280;26591;43.264;26.940;2023-05-13T10:43:17;99643.28;;;20.00;32.70
40872;BME280;26591;43.264;26.940;2023-05-13T10:45:48;99633.06;;;20.15;32.53
40872;BME280;26591;43.264;26.940;2023-05-13T10:48:15;99631.47;;;20.39;33.52
40872;BME280;26591;43.264;26.940;2023-05-13T10:51:02;99625.84;;;21.49;32.13
40872;BME280;26591;43.264;26.940;2023-05-13T10:53:29;99634.94;;;21.73;30.85
40872;BME280;26591;43.264;26.940;2023-05-13T10:55:58;99638.47;;;20.47;32.02
40872;BME280;26591;43.264;26.940;2023-05-13T10:58:28;99634.88;;;20.60;32.08
40872;BME280;26591;43.264;26.940;2023-05-13T11:01:56;99627.44;;;21.13;31.79
40872;BME280;26591;43.264;26.940;2023-05-13T11:03:59;99628.66;;;21.61;30.96
40872;BME280;26591;43.264;26.940;2023-05-13T11:06:34;99644.03;;;21.54;30.38
40872;BME280;26591;43.264;26.940;2023-05-13T11:09:04;99648.16;;;21.93;30.81
40872;BME280;26591;43.264;26.940;2023-05-13T11:11:32;99653.44;;;22.19;29.67
40872;BME280;26591;43.264;26.940;2023-05-13T11:17:08;99648.97;;;21.94;29.78
40872;BME280;26591;43.264;26.940;2023-05-13T11:19:45;99644.66;;;21.74;30.29
40872;BME280;26591;43.264;26.940;2023-05-13T11:22:13;99645.31;;;22.07;29.57
40872;BME280;26591;43.264;26.940;2023-05-13T11:24:39;99651.88;;;21.37;29.82
40872;BME280;26591;43.264;26.940;2023-05-13T11:27:13;99653.75;;;20.53;30.60
40872;BME280;26591;43.264;26.940;2023-05-13T11:29:47;99649.31;;;21.23;30.28
40872;BME280;26591;43.264;26.940;2023-05-13T11:32:13;99638.88;;;21.89;29.68
40872;BME280;26591;43.264;26.940;2023-05-13T11:34:49;99648.97;;;21.57;29.79
40872;BME280;26591;43.264;26.940;2023-05-13T11:37:16;99647.16;;;21.32;30.03
40872;BME280;26591;43.264;26.940;2023-05-13T11:39:42;99654.06;;;21.46;29.70
40872;BME280;26591;43.264;26.940;2023-05-13T11:42:09;99637.06;;;21.46;29.06
40872;BME280;26591;43.264;26.940;2023-05-13T11:44:36;99640.38;;;22.34;28.60
40872;BME280;26591;43.264;26.940;2023-05-13T11:47:08;99634.06;;;22.71;28.56
40872;BME280;26591;43.264;26.940;2023-05-13T11:49:44;99637.44;;;22.54;30.01
40872;BME280;26591;43.264;26.940;2023-05-13T11:52:14;99642.53;;;22.44;29.95
40872;BME280;26591;43.264;26.940;2023-05-13T12:02:19;99648.13;;;22.61;28.70
40872;BME280;26591;43.264;26.940;2023-05-13T12:04:45;99648.34;;;22.60;28.28
40872;BME280;26591;43.264;26.940;2023-05-13T12:07:10;99645.06;;;22.69;28.74
40872;BME280;26591;43.264;26.940;2023-05-13T12:09:36;99644.06;;;22.82;27.75
40872;BME280;26591;43.264;26.940;2023-05-13T12:12:02;99653.16;;;23.24;27.54
40872;BME280;26591;43.264;26.940;2023-05-13T12:14:27;99652.50;;;23.81;27.98
40872;BME280;26591;43.264;26.940;2023-05-13T12:16:55;99647.44;;;23.97;27.84
40872;BME280;26591;43.264;26.940;2023-05-13T12:19:21;99646.19;;;22.92;27.34
40872;BME280;26591;43.264;26.940;2023-05-13T12:21:49;99644.75;;;22.78;28.66
40872;BME280;26591;43.264;26.940;2023-05-13T12:24:21;99645.22;;;21.95;28.79
40872;BME280;26591;43.264;26.940;2023-05-13T12:26:47;99646.09;;;21.33;29.07
40872;BME280;26591;43.264;26.940;2023-05-13T12:29:13;99645.97;;;21.46;28.87
40872;BME280;26591;43.264;26.940;2023-05-13T12:31:41;99641.97;;;22.54;27.92
40872;BME280;26591;43.264;26.940;2023-05-13T12:34:06;99640.09;;;22.97;27.62
40872;BME280;26591;43.264;26.940;2023-05-13T12:36:36;99630.47;;;23.60;26.39
40872;BME280;26591;43.264;26.940;2023-05-13T12:39:03;99622.03;;;23.45;27.89
40872;BME280;26591;43.264;26.940;2023-05-13T12:41:49;99627.22;;;23.87;27.22
40872;BME280;26591;43.264;26.940;2023-05-13T12:44:17;99624.47;;;23.46;28.06
40872;BME280;26591;43.264;26.940;2023-05-13T12:46:52;99617.88;;;22.71;26.68
40872;BME280;26591;43.264;26.940;2023-05-13T12:49:18;99616.56;;;22.50;27.84
40872;BME280;26591;43.264;26.940;2023-05-13T12:51:43;99616.25;;;21.60;28.10
40872;BME280;26591;43.264;26.940;2023-05-13T12:54:10;99615.38;;;21.59;28.88
40872;BME280;26591;43.264;26.940;2023-05-13T12:56:36;99615.75;;;22.00;28.75
40872;BME280;26591;43.264;26.940;2023-05-13T12:59:04;99616.44;;;21.77;28.86
40872;BME280;26591;43.264;26.940;2023-05-13T13:01:30;99614.63;;;21.89;28.23
40872;BME280;26591;43.264;26.940;2023-05-13T13:03:57;99614.53;;;22.15;27.69
40872;BME280;26591;43.264;26.940;2023-05-13T13:06:23;99611.41;;;22.30;28.01
40872;BME280;26591;43.264;26.940;2023-05-13T13:08:48;99613.78;;;22.38;27.61